createdAt,value
2022-12-23T00:01:36.815Z,97632.75
2022-12-23T00:04:03.593Z,97632.75
2022-12-23T00:06:30.228Z,97634.84
2022-12-23T00:08:58.179Z,97626.09
2022-12-23T00:11:26.979Z,97622.94
2022-12-23T00:14:19.945Z,97627.97
2022-12-23T00:16:47.519Z,97631.56
2022-12-23T00:19:14.186Z,97630.22
2022-12-23T00:21:40.835Z,97627.22
2022-12-23T00:24:07.621Z,97632.44
2022-12-23T00:26:34.243Z,97625.16
2022-12-23T00:29:00.824Z,97627.38
2022-12-23T00:31:27.442Z,97623.06
2022-12-23T00:33:54.288Z,97630.78
2022-12-23T00:36:29.886Z,97632.28
2022-12-23T00:39:17.295Z,97630.78
2022-12-23T00:42:03.123Z,97633.47
2022-12-23T00:44:30.216Z,97631.84
2022-12-23T00:46:56.937Z,97636.59
2022-12-23T00:49:41.995Z,97642.06
2022-12-23T00:52:12.974Z,97638.81
2022-12-23T00:54:39.740Z,97640.72
2022-12-23T00:57:06.553Z,97636.41
2022-12-23T00:59:33.701Z,97635.53
2022-12-23T01:02:19.532Z,97636.41
2022-12-23T01:05:04.865Z,97628.81
2022-12-23T01:07:31.523Z,97635.97
2022-12-23T01:09:58.122Z,97625.53
2022-12-23T01:12:24.699Z,97629.56
2022-12-23T01:14:51.298Z,97631.19
2022-12-23T01:17:18.466Z,97638.94
2022-12-23T01:19:45.201Z,97644.56
2022-12-23T01:22:11.774Z,97639.38
2022-12-23T01:24:39.180Z,97642.78
2022-12-23T01:27:05.787Z,97646.06
2022-12-23T01:29:32.474Z,97636.06
2022-12-23T01:31:59.159Z,97657.22
2022-12-23T01:34:29.724Z,97662.28
2022-12-23T01:36:59.247Z,97670.63
2022-12-23T01:39:25.803Z,97665.84
2022-12-23T01:42:11.079Z,97677.97
2022-12-23T01:44:58.025Z,97690.94
2022-12-23T01:47:47.576Z,97687.84
2022-12-23T01:50:26.223Z,97687.84
2022-12-23T01:53:08.816Z,97693.66
2022-12-23T01:55:52.879Z,97699.94
2022-12-23T01:58:53.474Z,97699.88
2022-12-23T02:01:40.085Z,97696.50
2022-12-23T02:04:11.849Z,97703.69
2022-12-23T02:06:59.433Z,97712.00
2022-12-23T02:09:39.332Z,97705.34
2022-12-23T02:12:26.710Z,97707.97
2022-12-23T02:15:34.657Z,97713.78
2022-12-23T02:18:22.566Z,97711.34
2022-12-23T02:21:19.371Z,97713.63
2022-12-23T02:24:35.088Z,97728.06
2022-12-23T02:28:09.866Z,97729.31
2022-12-23T02:30:57.383Z,97734.22
2022-12-23T02:33:59.546Z,97726.09
2022-12-23T02:36:49.795Z,97732.66
2022-12-23T02:39:53.327Z,97729.34
2022-12-23T02:42:31.584Z,97732.78
2022-12-23T02:45:07.441Z,97732.94
2022-12-23T02:47:42.206Z,97721.63
2022-12-23T02:50:16.978Z,97726.09
2022-12-23T02:52:46.875Z,97727.56
2022-12-23T02:55:20.715Z,97725.47
2022-12-23T02:57:50.984Z,97728.31
2022-12-23T03:00:19.134Z,97724.44
2022-12-23T03:02:46.467Z,97734.03
2022-12-23T03:05:42.029Z,97733.94
2022-12-23T03:08:27.793Z,97737.59
2022-12-23T03:11:15.466Z,97716.75
2022-12-23T03:14:14.172Z,97731.13
2022-12-23T03:17:20.712Z,97742.41
2022-12-23T03:20:04.061Z,97745.22
2022-12-23T03:23:05.960Z,97752.13
2022-12-23T03:25:40.615Z,97743.22
2022-12-23T03:28:21.432Z,97748.88
2022-12-23T03:30:53.028Z,97746.81
2022-12-23T03:33:25.965Z,97745.94
2022-12-23T03:36:01.103Z,97758.19
2022-12-23T03:38:28.808Z,97762.66
2022-12-23T03:41:02.576Z,97763.00
2022-12-23T03:43:38.415Z,97769.22
2022-12-23T03:46:14.848Z,97757.34
2022-12-23T03:48:59.565Z,97758.41
2022-12-23T03:51:35.717Z,97762.88
2022-12-23T03:54:11.024Z,97773.09
2022-12-23T03:56:47.996Z,97784.72
2022-12-23T03:59:24.599Z,97796.28
2022-12-23T04:01:57.136Z,97799.00
2022-12-23T04:04:51.702Z,97796.81
2022-12-23T04:07:40.830Z,97781.13
2022-12-23T04:10:09.750Z,97784.09
2022-12-23T04:12:37.928Z,97789.25
2022-12-23T04:15:10.846Z,97803.06
2022-12-23T04:17:39.707Z,97798.78
2022-12-23T04:20:07.530Z,97814.88
2022-12-23T04:22:34.137Z,97819.97
2022-12-23T04:25:00.711Z,97813.72
2022-12-23T04:27:27.295Z,97810.44
2022-12-23T04:29:53.880Z,97810.75
2022-12-23T04:32:20.485Z,97815.84
2022-12-23T04:34:47.058Z,97814.94
2022-12-23T04:37:13.634Z,97815.97
2022-12-23T04:39:40.257Z,97808.81
2022-12-23T04:42:06.893Z,97806.19
2022-12-23T04:44:33.489Z,97803.47
2022-12-23T04:47:00.159Z,97796.97
2022-12-23T04:49:26.775Z,97798.16
2022-12-23T04:51:53.392Z,97796.97
2022-12-23T04:54:19.990Z,97799.78
2022-12-23T04:56:46.575Z,97805.88
2022-12-23T04:59:14.459Z,97794.56
2022-12-23T05:01:42.401Z,97799.66
2022-12-23T05:04:10.389Z,97803.81
2022-12-23T05:06:39.216Z,97807.25
2022-12-23T05:09:06.073Z,97796.81
2022-12-23T05:11:37.123Z,97804.97
2022-12-23T05:14:06.807Z,97805.72
2022-12-23T05:16:34.048Z,97823.91
2022-12-23T05:19:00.721Z,97813.34
2022-12-23T05:21:27.323Z,97817.31
2022-12-23T05:23:53.982Z,97810.63
2022-12-23T05:26:20.688Z,97809.41
2022-12-23T05:28:47.443Z,97813.56
2022-12-23T05:31:15.003Z,97811.50
2022-12-23T05:33:41.876Z,97821.91
2022-12-23T05:36:09.168Z,97824.56
2022-12-23T05:38:35.771Z,97826.28
2022-12-23T05:41:03.119Z,97826.19
2022-12-23T05:43:29.765Z,97823.00
2022-12-23T05:45:56.509Z,97821.56
2022-12-23T05:48:23.106Z,97819.72
2022-12-23T05:50:53.443Z,97820.78
2022-12-23T05:53:20.791Z,97827.19
2022-12-23T05:55:47.931Z,97835.06
2022-12-23T05:58:15.718Z,97825.03
2022-12-23T06:00:42.909Z,97829.47
2022-12-23T06:03:13.677Z,97840.84
2022-12-23T06:05:43.338Z,97844.00
2022-12-23T06:08:10.059Z,97847.00
2022-12-23T06:10:36.739Z,97840.31
2022-12-23T06:13:03.325Z,97836.69
2022-12-23T06:15:30.008Z,97848.78
2022-12-23T06:17:56.708Z,97852.53
2022-12-23T06:20:23.296Z,97854.72
2022-12-23T06:22:49.961Z,97852.44
2022-12-23T06:25:16.764Z,97870.81
2022-12-23T06:27:43.438Z,97873.16
2022-12-23T06:30:11.408Z,97883.66
2022-12-23T06:32:38.973Z,97883.50
2022-12-23T06:35:07.705Z,97897.28
2022-12-23T06:37:34.933Z,97889.38
2022-12-23T06:40:01.866Z,97885.25
2022-12-23T06:42:28.579Z,97897.56
2022-12-23T06:44:55.228Z,97891.22
2022-12-23T06:47:21.814Z,97891.50
2022-12-23T06:49:48.885Z,97889.78
2022-12-23T06:52:15.506Z,97901.97
2022-12-23T06:54:42.062Z,97903.81
2022-12-23T06:57:08.668Z,97902.06
2022-12-23T06:59:35.247Z,97900.09
2022-12-23T07:02:01.999Z,97899.78
2022-12-23T07:04:28.671Z,97891.44
2022-12-23T07:06:55.244Z,97894.03
2022-12-23T07:09:21.853Z,97890.47
2022-12-23T07:11:48.465Z,97887.53
2022-12-23T07:14:15.029Z,97886.34
2022-12-23T07:16:41.625Z,97894.47
2022-12-23T07:19:08.303Z,97895.56
2022-12-23T07:21:36.546Z,97886.66
2022-12-23T07:24:03.385Z,97888.09
2022-12-23T07:26:30.006Z,97894.09
2022-12-23T07:28:56.882Z,97903.63
2022-12-23T07:31:23.746Z,97901.97
2022-12-23T07:33:50.418Z,97906.56
2022-12-23T07:36:17.677Z,97909.41
2022-12-23T07:38:51.347Z,97899.16
2022-12-23T07:41:18.209Z,97907.19
2022-12-23T07:43:44.903Z,97918.47
2022-12-23T07:46:11.910Z,97922.34
2022-12-23T07:48:41.600Z,97926.03
2022-12-23T07:51:08.475Z,97935.59
2022-12-23T07:53:35.990Z,97933.53
2022-12-23T07:56:02.637Z,97939.47
2022-12-23T07:58:29.291Z,97935.13
2022-12-23T08:01:01.149Z,97942.72
2022-12-23T08:03:28.001Z,97941.97
2022-12-23T08:06:07.378Z,97951.94
2022-12-23T08:08:35.118Z,97941.81
2022-12-23T08:11:07.976Z,97938.25
2022-12-23T08:13:38.077Z,97936.78
2022-12-23T08:16:06.979Z,97937.06
2022-12-23T08:18:39.947Z,97929.94
2022-12-23T08:21:19.276Z,97935.28
2022-12-23T08:23:47.420Z,97915.63
2022-12-23T08:26:23.006Z,97925.19
2022-12-23T08:28:53.406Z,97928.16
2022-12-23T08:31:26.964Z,97934.41
2022-12-23T08:33:56.457Z,97933.19
2022-12-23T08:36:28.355Z,97941.53
2022-12-23T08:38:57.571Z,97943.16
2022-12-23T08:41:32.006Z,97949.69
2022-12-23T08:43:58.869Z,97947.47
2022-12-23T08:46:26.168Z,97948.56
2022-12-23T08:48:53.737Z,97943.63
2022-12-23T08:51:23.515Z,97944.66
2022-12-23T08:53:54.810Z,97943.75
2022-12-23T08:56:29.498Z,97939.44
2022-12-23T08:58:56.261Z,97948.50
2022-12-23T09:01:28.041Z,97929.31
2022-12-23T09:03:55.304Z,97938.66
2022-12-23T09:06:29.519Z,97930.63
2022-12-23T09:08:57.813Z,97936.47
2022-12-23T09:11:27.790Z,97930.81
2022-12-23T09:13:55.890Z,97930.81
2022-12-23T09:16:23.625Z,97931.06
2022-12-23T09:18:50.378Z,97944.03
2022-12-23T09:21:20.623Z,97934.63
2022-12-23T09:23:47.996Z,97939.38
2022-12-23T09:26:23.411Z,97940.97
2022-12-23T09:28:50.459Z,97939.56
2022-12-23T09:31:17.412Z,97944.66
2022-12-23T09:33:48.266Z,97944.66
2022-12-23T09:36:15.178Z,97946.56
2022-12-23T09:38:41.842Z,97946.16
2022-12-23T09:41:36.023Z,97940.91
2022-12-23T09:44:34.272Z,97946.88
2022-12-23T09:47:17.405Z,97946.66
2022-12-23T09:49:53.390Z,97942.66
2022-12-23T09:52:33.471Z,97938.50
2022-12-23T09:55:00.643Z,97938.50
2022-12-23T09:57:42.118Z,97924.22
2022-12-23T10:00:18.535Z,97935.56
2022-12-23T10:03:04.046Z,97934.75
2022-12-23T10:06:04.245Z,97936.78
2022-12-23T10:08:45.174Z,97915.31
2022-12-23T10:11:25.929Z,97916.13
2022-12-23T10:14:21.934Z,97913.38
2022-12-23T10:17:08.778Z,97916.81
2022-12-23T10:19:42.042Z,97918.75
2022-12-23T10:22:34.170Z,97913.69
2022-12-23T10:25:07.280Z,97912.19
2022-12-23T10:27:40.569Z,97905.19
2022-12-23T10:30:42.009Z,97893.88
2022-12-23T10:33:23.167Z,97890.75
2022-12-23T10:36:32.905Z,97894.66
2022-12-23T10:39:14.044Z,97888.59
2022-12-23T10:42:26.937Z,97888.59
2022-12-23T10:45:33.526Z,97884.88
2022-12-23T10:48:46.808Z,97878.19
2022-12-23T10:51:23.180Z,97884.16
2022-12-23T10:54:10.995Z,97882.09
2022-12-23T10:56:38.601Z,97879.38
2022-12-23T10:59:12.865Z,97866.84
2022-12-23T11:01:47.529Z,97860.78
2022-12-23T11:04:18.509Z,97852.16
2022-12-23T11:07:10.799Z,97845.13
2022-12-23T11:09:59.817Z,97840.66
2022-12-23T11:12:43.456Z,97832.91
2022-12-23T11:15:35.606Z,97840.66
2022-12-23T11:18:06.194Z,97840.97
2022-12-23T11:20:36.508Z,97828.41
2022-12-23T11:23:05.874Z,97824.09
2022-12-23T11:25:40.300Z,97827.22
2022-12-23T11:28:18.108Z,97815.44
2022-12-23T11:30:56.521Z,97805.38
2022-12-23T11:33:28.681Z,97796.00
2022-12-23T11:36:08.441Z,97788.84
2022-12-23T11:38:37.851Z,97783.63
2022-12-23T11:41:05.170Z,97780.97
2022-12-23T11:43:33.842Z,97768.44
2022-12-23T11:46:26.520Z,97759.53
2022-12-23T11:49:26.460Z,97764.56
2022-12-23T11:51:59.992Z,97753.13
2022-12-23T11:54:27.173Z,97757.09
2022-12-23T11:57:14.396Z,97753.69
2022-12-23T11:59:46.061Z,97751.53
2022-12-23T12:02:21.939Z,97745.88
2022-12-23T12:05:16.318Z,97732.59
2022-12-23T12:07:46.652Z,97724.84
2022-12-23T12:10:26.067Z,97727.16
2022-12-23T12:12:58.296Z,97728.63
2022-12-23T12:15:48.785Z,97726.72
2022-12-23T12:18:22.549Z,97715.25
2022-12-23T12:21:05.885Z,97712.75
2022-12-23T12:24:14.769Z,97705.84
2022-12-23T12:26:44.329Z,97710.00
2022-12-23T12:29:22.759Z,97708.41
2022-12-23T12:31:58.232Z,97714.56
2022-12-23T12:34:33.931Z,97708.00
2022-12-23T12:37:39.611Z,97718.84
2022-12-23T12:40:31.343Z,97711.72
2022-12-23T12:43:24.596Z,97715.72
2022-12-23T12:46:18.612Z,97703.84
2022-12-23T12:48:53.638Z,97694.69
2022-12-23T12:51:53.047Z,97690.25
2022-12-23T12:54:19.738Z,97687.00
2022-12-23T12:56:55.480Z,97674.75
2022-12-23T12:59:28.240Z,97667.84
2022-12-23T13:02:16.234Z,97661.38
2022-12-23T13:05:20.536Z,97648.25
2022-12-23T13:08:34.438Z,97646.03
2022-12-23T13:11:28.023Z,97647.38
2022-12-23T13:14:34.473Z,97645.50
2022-12-23T13:17:21.406Z,97639.88
2022-12-23T13:20:13.065Z,97641.56
2022-12-23T13:22:40.273Z,97631.34
2022-12-23T13:25:20.323Z,97612.59
2022-12-23T13:27:57.819Z,97613.09
2022-12-23T13:30:35.886Z,97604.13
2022-12-23T13:33:25.901Z,97592.47
2022-12-23T13:36:07.659Z,97590.66
2022-12-23T13:38:58.556Z,97578.41
2022-12-23T13:41:43.522Z,97568.28
2022-12-23T13:44:13.367Z,97573.03
2022-12-23T13:46:58.424Z,97571.00
2022-12-23T13:49:33.746Z,97588.91
2022-12-23T13:52:11.302Z,97598.34
2022-12-23T13:54:51.187Z,97595.06
2022-12-23T13:57:55.153Z,97597.91
2022-12-23T14:00:31.174Z,97588.84
2022-12-23T14:03:02.748Z,97580.09
2022-12-23T14:05:50.691Z,97565.56
2022-12-23T14:08:24.062Z,97562.63
2022-12-23T14:10:58.816Z,97570.97
2022-12-23T14:13:47.682Z,97541.75
2022-12-23T14:16:45.923Z,97509.44
2022-12-23T14:19:18.609Z,97513.44
2022-12-23T14:22:28.159Z,97514.06
2022-12-23T14:25:44.796Z,97500.19
2022-12-23T14:28:45.309Z,97503.41
2022-12-23T14:31:57.690Z,97487.34
2022-12-23T14:34:31.822Z,97478.38
2022-12-23T14:37:24.118Z,97482.47
2022-12-23T14:39:52.702Z,97469.75
2022-12-23T14:42:42.716Z,97480.44
2022-12-23T14:45:42.289Z,97476.75
2022-12-23T14:48:33.954Z,97471.81
2022-12-23T14:51:08.604Z,97469.94
2022-12-23T14:53:57.935Z,97457.78
2022-12-23T14:56:33.305Z,97465.38
2022-12-23T14:59:30.153Z,97480.91
2022-12-23T15:02:08.606Z,97483.38
2022-12-23T15:05:00.804Z,97484.81
2022-12-23T15:07:46.050Z,97480.69
2022-12-23T15:10:29.065Z,97462.53
2022-12-23T15:12:58.605Z,97456.63
2022-12-23T15:15:29.476Z,97469.66
2022-12-23T15:18:03.584Z,97468.31
2022-12-23T15:20:30.696Z,97469.63
2022-12-23T15:23:01.431Z,97463.31
2022-12-23T15:25:35.060Z,97458.69
2022-12-23T15:28:04.425Z,97462.25
2022-12-23T15:30:37.432Z,97453.59
2022-12-23T15:33:27.734Z,97453.88
2022-12-23T15:35:54.267Z,97454.03
2022-12-23T15:38:24.004Z,97441.06
2022-12-23T15:41:22.989Z,97426.00
2022-12-23T15:43:49.722Z,97427.75
2022-12-23T15:46:26.917Z,97431.06
2022-12-23T15:48:56.580Z,97431.66
2022-12-23T15:52:05.184Z,97427.63
2022-12-23T15:54:31.679Z,97423.81
2022-12-23T15:57:01.415Z,97422.94
2022-12-23T15:59:38.948Z,97425.09
2022-12-23T16:02:59.705Z,97418.59
2022-12-23T16:05:31.312Z,97398.78
2022-12-23T16:08:16.232Z,97398.78
2022-12-23T16:10:56.857Z,97398.88
2022-12-23T16:13:24.042Z,97398.13
2022-12-23T16:15:50.791Z,97396.00
2022-12-23T16:18:29.807Z,97379.41
2022-12-23T16:21:03.267Z,97389.13
2022-12-23T16:23:33.499Z,97396.50
2022-12-23T16:26:02.086Z,97394.34
2022-12-23T16:28:58.767Z,97402.59
2022-12-23T16:31:25.879Z,97391.41
2022-12-23T16:33:58.209Z,97398.38
2022-12-23T16:36:27.891Z,97406.59
2022-12-23T16:39:21.373Z,97412.25
2022-12-23T16:41:49.402Z,97406.19
2022-12-23T16:44:16.614Z,97416.78
2022-12-23T16:46:47.573Z,97424.09
2022-12-23T16:49:20.396Z,97417.97
2022-12-23T16:51:47.915Z,97432.38
2022-12-23T16:54:18.757Z,97424.19
2022-12-23T16:56:46.753Z,97426.81
2022-12-23T16:59:14.607Z,97420.31
2022-12-23T17:01:48.974Z,97426.34
2022-12-23T17:04:15.749Z,97438.88
2022-12-23T17:06:42.385Z,97430.44
2022-12-23T17:09:12.464Z,97426.53
2022-12-23T17:11:49.220Z,97438.81
2022-12-23T17:14:23.169Z,97443.13
2022-12-23T17:16:50.838Z,97441.38
2022-12-23T17:19:25.287Z,97444.44
2022-12-23T17:22:01.336Z,97436.06
2022-12-23T17:24:28.154Z,97451.38
2022-12-23T17:26:56.663Z,97446.72
2022-12-23T17:29:23.537Z,97444.00
2022-12-23T17:31:51.221Z,97442.03
2022-12-23T17:34:21.736Z,97440.78
2022-12-23T17:36:50.569Z,97438.47
2022-12-23T17:39:19.246Z,97454.88
2022-12-23T17:41:46.318Z,97448.00
2022-12-23T17:44:18.064Z,97445.25
2022-12-23T17:46:46.243Z,97452.03
2022-12-23T17:49:13.080Z,97467.16
2022-12-23T17:51:41.015Z,97466.72
2022-12-23T17:54:24.504Z,97472.09
2022-12-23T17:56:51.674Z,97460.50
2022-12-23T17:59:19.467Z,97479.78
2022-12-23T18:01:46.685Z,97482.22
2022-12-23T18:04:13.314Z,97478.97
2022-12-23T18:06:39.926Z,97493.38
2022-12-23T18:09:06.562Z,97484.03
2022-12-23T18:11:43.909Z,97491.84
2022-12-23T18:14:18.280Z,97472.69
2022-12-23T18:16:44.947Z,97474.69
2022-12-23T18:19:20.301Z,97483.69
2022-12-23T18:21:47.722Z,97474.34
2022-12-23T18:24:15.079Z,97481.41
2022-12-23T18:26:41.784Z,97493.56
2022-12-23T18:29:08.371Z,97494.22
2022-12-23T18:31:37.419Z,97500.31
2022-12-23T18:34:04.519Z,97498.97
2022-12-23T18:36:33.756Z,97498.25
2022-12-23T18:39:00.603Z,97509.06
2022-12-23T18:41:27.398Z,97510.75
2022-12-23T18:43:54.338Z,97511.69
2022-12-23T18:46:21.606Z,97514.38
2022-12-23T18:48:48.612Z,97512.28
2022-12-23T18:51:18.117Z,97531.00
2022-12-23T18:53:46.217Z,97517.75
2022-12-23T18:56:20.772Z,97530.09
2022-12-23T18:58:47.577Z,97527.72
2022-12-23T19:01:15.975Z,97540.97
2022-12-23T19:03:42.739Z,97540.56
2022-12-23T19:06:13.325Z,97553.06
2022-12-23T19:08:41.177Z,97560.59
2022-12-23T19:11:20.201Z,97562.41
2022-12-23T19:13:47.324Z,97566.34
2022-12-23T19:16:17.453Z,97566.59
2022-12-23T19:18:45.678Z,97580.03
2022-12-23T19:21:12.636Z,97588.06
2022-12-23T19:23:41.191Z,97581.66
2022-12-23T19:26:13.545Z,97583.97
2022-12-23T19:28:41.391Z,97600.25
2022-12-23T19:31:10.158Z,97586.81
2022-12-23T19:33:42.990Z,97590.38
2022-12-23T19:36:16.858Z,97603.97
2022-12-23T19:38:43.504Z,97612.06
2022-12-23T19:41:10.346Z,97613.06
2022-12-23T19:43:38.474Z,97614.47
2022-12-23T19:46:07.955Z,97610.63
2022-12-23T19:48:35.083Z,97607.19
2022-12-23T19:51:11.361Z,97611.59
2022-12-23T19:53:40.625Z,97608.81
2022-12-23T19:56:13.043Z,97609.56
2022-12-23T19:58:41.945Z,97620.69
2022-12-23T20:01:12.293Z,97627.06
2022-12-23T20:03:40.108Z,97617.91
2022-12-23T20:06:10.153Z,97613.34
2022-12-23T20:08:36.872Z,97615.81
2022-12-23T20:11:08.476Z,97623.47
2022-12-23T20:13:36.444Z,97624.22
2022-12-23T20:16:04.965Z,97631.97
2022-12-23T20:18:32.186Z,97644.69
2022-12-23T20:21:00.761Z,97644.94
2022-12-23T20:23:28.660Z,97647.00
2022-12-23T20:25:57.183Z,97646.66
2022-12-23T20:28:24.573Z,97650.38
2022-12-23T20:31:07.784Z,97654.31
2022-12-23T20:33:35.932Z,97653.06
2022-12-23T20:36:05.627Z,97668.13
2022-12-23T20:38:35.366Z,97677.22
2022-12-23T20:41:03.071Z,97671.66
2022-12-23T20:43:29.712Z,97684.00
2022-12-23T20:45:56.381Z,97673.00
2022-12-23T20:48:25.816Z,97696.22
2022-12-23T20:50:54.901Z,97700.16
2022-12-23T20:53:21.505Z,97707.56
2022-12-23T20:55:48.097Z,97714.84
2022-12-23T20:58:33.768Z,97713.72
2022-12-23T21:01:18.312Z,97709.19
2022-12-23T21:03:45.036Z,97704.84
2022-12-23T21:06:11.658Z,97706.09
2022-12-23T21:08:38.873Z,97696.00
2022-12-23T21:11:07.174Z,97705.34
2022-12-23T21:13:35.283Z,97720.41
2022-12-23T21:16:04.786Z,97719.41
2022-12-23T21:18:31.870Z,97712.53
2022-12-23T21:21:04.125Z,97730.28
2022-12-23T21:23:31.665Z,97744.22
2022-12-23T21:26:14.964Z,97747.81
2022-12-23T21:28:44.171Z,97742.88
2022-12-23T21:31:10.915Z,97737.91
2022-12-23T21:33:42.716Z,97736.94
2022-12-23T21:36:16.420Z,97730.75
2022-12-23T21:38:48.049Z,97735.44
2022-12-23T21:41:18.229Z,97731.22
2022-12-23T21:43:45.063Z,97736.78
2022-12-23T21:46:19.606Z,97734.44
2022-12-23T21:48:47.179Z,97717.69
2022-12-23T21:51:16.555Z,97719.16
2022-12-23T21:53:45.419Z,97719.88
2022-12-23T21:56:24.062Z,97719.59
2022-12-23T21:58:58.153Z,97724.19
2022-12-23T22:01:25.987Z,97738.38
2022-12-23T22:03:53.931Z,97755.41
2022-12-23T22:06:26.563Z,97755.91
2022-12-23T22:08:54.727Z,97763.03
2022-12-23T22:11:25.822Z,97760.03
2022-12-23T22:13:53.145Z,97760.41
2022-12-23T22:16:22.905Z,97750.19
2022-12-23T22:18:50.692Z,97772.22
2022-12-23T22:21:23.387Z,97782.50
2022-12-23T22:23:53.620Z,97779.69
2022-12-23T22:26:25.831Z,97777.03
2022-12-23T22:28:55.177Z,97783.47
2022-12-23T22:31:39.585Z,97779.38
2022-12-23T22:34:07.539Z,97786.31
2022-12-23T22:36:34.626Z,97785.50
2022-12-23T22:39:02.520Z,97800.19
2022-12-23T22:41:31.266Z,97794.34
2022-12-23T22:43:58.838Z,97800.56
2022-12-23T22:46:26.577Z,97802.56
2022-12-23T22:48:58.943Z,97819.06
2022-12-23T22:51:29.303Z,97816.38
2022-12-23T22:53:56.331Z,97824.88
2022-12-23T22:56:25.199Z,97817.50
2022-12-23T22:58:52.916Z,97813.72
2022-12-23T23:01:29.758Z,97820.41
2022-12-23T23:03:59.850Z,97831.97
2022-12-23T23:06:32.029Z,97827.13
2022-12-23T23:08:59.172Z,97831.75
2022-12-23T23:11:27.391Z,97847.81
2022-12-23T23:13:54.821Z,97846.59
2022-12-23T23:16:23.891Z,97853.00
2022-12-23T23:18:51.410Z,97848.22
2022-12-23T23:21:18.155Z,97865.06
2022-12-23T23:23:45.397Z,97866.19
2022-12-23T23:26:12.399Z,97851.19
2022-12-23T23:28:39.841Z,97856.69
2022-12-23T23:33:55.124Z,97874.50
2022-12-23T23:36:21.773Z,97869.34
2022-12-23T23:38:48.397Z,97874.78
2022-12-23T23:41:18.904Z,97876.59
2022-12-23T23:43:49.324Z,97878.03
2022-12-23T23:46:16.068Z,97884.66
2022-12-23T23:48:42.754Z,97879.16
2022-12-23T23:51:09.524Z,97887.50
2022-12-23T23:53:36.327Z,97876.59
2022-12-23T23:56:06.293Z,97886.53
2022-12-23T23:58:34.414Z,97895.91
